Terminal Aerodrome Forecast
Issued by NWS

Home | Current Version | Previous Version | Text Only | Print | Product List | Glossary Off
Versions: 1 2 3 4 5 6 7 8 9 10 11 12 13 14 15 16 17 18

481
FTUS43 KBIS 192233 AAA
TAFDIK
TAF AMD
KDIK 192233Z 1923/2018 18005KT P6SM SKC
     FM200800 23013KT P6SM BKN250
     FM201700 27017G26KT P6SM BKN200=

USA.gov is the U.S. government's official web portal to all federal, state and local government web resources and services.